Time;durP1;ratioP1;P1;durP2;ratioP2;P2;SDS_P1;SDS_P2;PMS_P1;PMS_P2;Temp;Humidity;BMP_temperature;BMP_pressure;BME280_temperature;BME280_humidity;BME280_pressure;Samples;Min_cycle;Max_cycle;Signal;HPM_P1;HPM_P2
2022/08/02 00:01:31;;;;;;;7.43;2.35;;;;;;;12.30;91.14;101741.91;4974580;28;20674;-50
2022/08/02 00:03:56;;;;;;;7.90;2.08;;;;;;;12.21;91.07;101742.19;4974697;28;20178;-47
2022/08/02 00:06:22;;;;;;;9.30;2.00;;;;;;;12.10;91.33;101742.50;4974732;28;20214;-48
2022/08/02 00:08:48;;;;;;;8.43;2.58;;;;;;;12.01;92.16;101745.47;4974224;28;20186;-51
2022/08/02 00:11:13;;;;;;;10.10;2.05;;;;;;;11.95;92.54;101744.72;4973385;28;20202;-51
2022/08/02 00:13:39;;;;;;;4.60;1.70;;;;;;;12.13;92.51;101731.66;4974435;28;20186;-49
2022/08/02 00:16:04;;;;;;;5.40;2.17;;;;;;;11.89;91.85;101733.28;4974122;28;20186;-49
2022/08/02 00:18:30;;;;;;;9.20;2.60;;;;;;;11.82;92.23;101742.41;4973796;28;20174;-51
2022/08/02 00:20:55;;;;;;;8.88;2.47;;;;;;;12.01;92.54;101742.81;4974426;28;20205;-54
2022/08/02 00:23:21;;;;;;;9.65;2.88;;;;;;;11.63;93.09;101742.03;4974007;28;20669;-49
2022/08/02 00:25:46;;;;;;;7.32;2.53;;;;;;;11.86;93.67;101741.41;4974350;28;20525;-49
2022/08/02 00:28:12;;;;;;;8.48;2.45;;;;;;;11.87;93.44;101735.09;4974045;28;20190;-51
2022/08/02 00:30:37;;;;;;;9.52;2.65;;;;;;;11.89;93.67;101728.78;4974208;28;20189;-50
2022/08/02 00:33:04;;;;;;;7.65;2.33;;;;;;;11.82;93.61;101735.22;4974027;28;20189;-51
2022/08/02 00:35:30;;;;;;;11.00;3.00;;;;;;;11.83;94.00;101728.03;4973961;28;20232;-50
2022/08/02 00:37:56;;;;;;;8.75;3.80;;;;;;;11.90;94.13;101722.50;4974087;28;20174;-47
2022/08/02 00:40:22;;;;;;;8.15;4.00;;;;;;;11.89;93.79;101719.84;4973876;28;20228;-48
2022/08/02 00:43:09;;;;;;;8.88;4.38;;;;;;;11.85;93.71;101727.09;4973813;28;20284;-48
2022/08/02 00:45:40;;;;;;;8.95;3.33;;;;;;;11.80;93.73;101729.03;4973634;28;20167;-48
2022/08/02 00:48:08;;;;;;;7.35;2.13;;;;;;;11.63;94.10;101736.66;4973783;28;20225;-48
2022/08/02 00:50:34;;;;;;;6.20;2.05;;;;;;;11.46;94.95;101743.41;4973370;28;20513;-49
2022/08/02 00:53:00;;;;;;;9.13;3.95;;;;;;;11.54;95.73;101733.34;4975816;28;20518;-48
2022/08/02 00:55:26;;;;;;;4.68;2.30;;;;;;;11.67;95.77;101731.16;4993238;28;20641;-49
2022/08/02 00:57:53;;;;;;;8.50;2.95;;;;;;;11.70;95.58;101738.28;4992815;28;20169;-47
2022/08/02 01:00:19;;;;;;;9.30;4.72;;;;;;;11.66;95.33;101737.47;4992957;28;20178;-47
2022/08/02 01:02:44;;;;;;;9.00;4.25;;;;;;;11.50;94.97;101747.78;4992744;28;20292;-49
2022/08/02 01:05:10;;;;;;;14.70;5.80;;;;;;;11.51;95.12;101746.84;4992625;28;20248;-49
2022/08/02 01:07:36;;;;;;;11.10;6.22;;;;;;;11.56;95.33;101744.00;4992809;28;20251;-51
2022/08/02 01:10:02;;;;;;;8.32;2.72;;;;;;;11.58;95.50;101743.97;4991194;28;20177;-52
2022/08/02 01:12:28;;;;;;;11.93;5.82;;;;;;;11.36;95.51;101744.56;4992551;28;20197;-54
2022/08/02 01:14:57;;;;;;;5.68;2.75;;;;;;;11.36;95.96;101749.94;4992144;28;20295;-49
2022/08/02 01:17:37;;;;;;;6.68;2.67;;;;;;;11.49;95.90;101750.47;4992766;28;20181;-49
2022/08/02 01:20:36;;;;;;;7.53;2.90;;;;;;;11.34;95.65;101749.97;4992569;28;20185;-49
2022/08/02 01:23:05;;;;;;;6.65;2.20;;;;;;;11.47;95.83;101755.00;4992241;28;20191;-50
2022/08/02 01:25:59;;;;;;;3.83;2.20;;;;;;;11.52;95.59;101756.66;4992510;28;20177;-53
2022/08/02 01:28:40;;;;;;;7.53;2.40;;;;;;;11.39;95.33;101757.00;4992257;28;20198;-49
2022/08/02 01:31:24;;;;;;;6.53;2.38;;;;;;;11.39;95.52;101757.91;4976657;28;20784;-49
2022/08/02 01:34:15;;;;;;;7.03;2.20;;;;;;;11.38;95.80;101753.44;4972135;28;20248;-49
2022/08/02 01:36:45;;;;;;;9.80;2.40;;;;;;;11.43;95.47;101764.06;4972766;28;20217;-52
2022/08/02 01:39:14;;;;;;;6.63;2.70;;;;;;;11.35;95.60;101761.59;4971454;28;20232;-53
2022/08/02 01:41:41;;;;;;;6.35;2.83;;;;;;;11.37;95.79;101754.41;4972659;28;20190;-49
2022/08/02 01:44:10;;;;;;;5.20;2.40;;;;;;;11.47;95.73;101752.31;4971694;28;20183;-50
2022/08/02 01:46:39;;;;;;;5.85;2.20;;;;;;;11.41;95.53;101765.91;4972471;28;20210;-51
2022/08/02 01:49:11;;;;;;;5.40;2.20;;;;;;;11.33;95.52;101761.63;4972518;28;20210;-50
2022/08/02 01:54:28;;;;;;;6.63;2.60;;;;;;;11.28;95.61;101768.94;4979379;28;20569;-50
2022/08/02 01:56:56;;;;;;;5.15;2.30;;;;;;;11.31;95.71;101762.59;4989732;28;20704;-54
2022/08/02 01:59:22;;;;;;;6.35;2.65;;;;;;;11.31;95.72;101767.97;4991776;28;20189;-53
2022/08/02 02:01:50;;;;;;;6.25;1.83;;;;;;;11.27;95.92;101759.09;4990683;28;20314;-51
2022/08/02 02:04:19;;;;;;;5.57;2.15;;;;;;;11.34;96.13;101765.19;4990844;28;20185;-51
2022/08/02 02:06:46;;;;;;;7.55;2.40;;;;;;;11.28;96.10;101765.34;4991562;28;20182;-48
2022/08/02 02:09:14;;;;;;;5.88;2.28;;;;;;;11.28;96.27;101760.88;4991870;28;20200;-47
2022/08/02 02:11:43;;;;;;;4.05;1.92;;;;;;;11.30;96.12;101760.81;4991261;28;20209;-47
2022/08/02 02:14:11;;;;;;;6.72;2.10;;;;;;;11.27;95.95;101763.59;4990264;28;20744;-51
2022/08/02 02:16:41;;;;;;;6.95;2.47;;;;;;;11.16;96.01;101771.03;4991666;28;20565;-49
2022/08/02 02:19:08;;;;;;;7.60;2.58;;;;;;;11.20;96.56;101762.88;4991279;28;20188;-54
2022/08/02 02:21:33;;;;;;;6.97;2.28;;;;;;;11.18;96.61;101756.66;4991058;28;20232;-49
2022/08/02 02:23:59;;;;;;;6.45;2.70;;;;;;;11.11;96.61;101760.44;4990582;28;20193;-48
2022/08/02 02:26:26;;;;;;;7.45;2.00;;;;;;;11.12;96.50;101759.50;4991299;28;20181;-50
2022/08/02 02:28:53;;;;;;;7.78;2.40;;;;;;;11.01;96.59;101758.91;4991249;28;20530;-46
2022/08/02 02:31:20;;;;;;;5.55;2.20;;;;;;;11.12;96.84;101749.66;4991059;28;20213;-46
2022/08/02 02:33:50;;;;;;;4.43;2.15;;;;;;;11.08;96.72;101747.97;4991031;28;20189;-46
2022/08/02 02:36:20;;;;;;;6.47;2.13;;;;;;;11.10;96.79;101748.81;4990807;28;20192;-49
2022/08/02 02:38:47;;;;;;;4.75;2.33;;;;;;;11.01;96.86;101748.16;4991264;28;20181;-48
2022/08/02 02:41:15;;;;;;;7.28;2.40;;;;;;;11.01;97.05;101741.00;4991174;28;20275;-43
2022/08/02 02:43:43;;;;;;;4.75;1.95;;;;;;;10.97;96.99;101739.31;4990344;28;20178;-44
2022/08/02 02:46:10;;;;;;;4.45;2.00;;;;;;;10.99;97.03;101734.78;4990892;28;20186;-46
2022/08/02 02:48:36;;;;;;;4.85;1.98;;;;;;;10.86;96.70;101733.34;4990871;28;20181;-47
2022/08/02 02:51:06;;;;;;;4.05;2.17;;;;;;;10.84;96.93;101729.81;4991067;28;20259;-47
2022/08/02 02:53:35;;;;;;;6.30;2.60;;;;;;;10.85;96.75;101739.63;4990288;28;20212;-47
2022/08/02 02:56:01;;;;;;;4.40;1.95;;;;;;;10.78;96.58;101735.31;4991083;28;20185;-47
2022/08/02 02:58:27;;;;;;;3.92;2.50;;;;;;;10.45;97.13;101735.22;4990514;28;20162;-45
2022/08/02 03:03:37;;;;;;;4.00;2.45;;;;;;;10.50;98.85;101728.84;4990432;28;20181;-44
2022/08/02 03:06:03;;;;;;;3.88;1.92;;;;;;;10.54;98.64;101723.41;4990648;28;20528;-43
2022/08/02 03:08:29;;;;;;;7.43;2.30;;;;;;;10.38;98.25;101718.41;4991022;28;20170;-44
2022/08/02 03:10:55;;;;;;;8.98;2.38;;;;;;;10.17;98.33;101722.44;4990576;28;20193;-44
2022/08/02 03:13:20;;;;;;;4.88;1.83;;;;;;;10.21;98.94;101715.19;4992588;28;20235;-44
2022/08/02 03:15:46;;;;;;;5.60;2.30;;;;;;;10.23;99.13;101721.38;4994668;28;20357;-43
2022/08/02 03:18:34;;;;;;;4.63;1.98;;;;;;;10.23;98.93;101722.31;4994098;28;20184;-43
2022/08/02 03:21:05;;;;;;;5.13;2.22;;;;;;;10.25;98.75;101731.16;4994292;28;20212;-50
2022/08/02 03:23:31;;;;;;;5.40;2.25;;;;;;;10.20;98.72;101730.38;4993952;28;20263;-44
2022/08/02 03:25:56;;;;;;;3.40;2.05;;;;;;;10.27;98.67;101732.00;4993026;28;20652;-44
2022/08/02 03:28:22;;;;;;;3.90;2.10;;;;;;;10.27;98.28;101737.34;4994095;28;20185;-45
2022/08/02 03:30:48;;;;;;;3.55;2.10;;;;;;;10.21;98.14;101723.22;4994090;28;20630;-45
2022/08/02 03:33:14;;;;;;;11.80;2.75;;;;;;;10.11;98.08;101719.88;4993945;28;20177;-47
2022/08/02 03:35:41;;;;;;;4.75;2.08;;;;;;;10.15;98.22;101721.59;4994403;28;20176;-49
2022/08/02 03:38:08;;;;;;;4.30;1.90;;;;;;;10.06;98.02;101730.69;4994614;28;20216;-46
2022/08/02 03:40:35;;;;;;;4.70;2.40;;;;;;;9.82;97.96;101712.50;4994023;28;20170;-46
2022/08/02 03:43:01;;;;;;;3.63;1.70;;;;;;;9.88;98.65;101699.84;4993935;28;20166;-46
2022/08/02 03:45:28;;;;;;;3.70;1.88;;;;;;;9.96;99.23;101707.72;4994101;28;20203;-47
2022/08/02 03:47:55;;;;;;;5.03;2.33;;;;;;;10.05;99.00;101706.63;4994095;28;20253;-45
2022/08/02 03:50:21;;;;;;;5.05;2.00;;;;;;;10.13;98.91;101704.66;4994109;28;20174;-47
2022/08/02 03:52:47;;;;;;;5.88;2.00;;;;;;;10.04;98.47;101703.06;4991802;28;20209;-47
2022/08/02 03:55:13;;;;;;;7.32;2.10;;;;;;;9.99;98.62;101704.97;4993616;28;20295;-46
2022/08/02 03:57:41;;;;;;;4.30;1.85;;;;;;;10.10;98.75;101692.22;4993236;28;20228;-48
2022/08/02 04:00:08;;;;;;;4.22;1.83;;;;;;;10.17;98.17;101697.47;4993617;28;20280;-43
2022/08/02 04:02:38;;;;;;;2.90;1.60;;;;;;;10.16;98.02;101707.25;4993342;28;20201;-44
2022/08/02 04:05:04;;;;;;;4.35;1.77;;;;;;;10.04;98.05;101702.19;4981991;28;20174;-46
2022/08/02 04:07:30;;;;;;;5.53;2.00;;;;;;;10.03;98.19;101712.00;4981951;28;20217;-46
2022/08/02 04:09:55;;;;;;;3.80;2.13;;;;;;;9.85;98.73;101705.25;4972749;28;20206;-44
2022/08/02 04:12:21;;;;;;;3.15;1.80;;;;;;;9.79;99.29;101704.50;4974024;28;20206;-50
2022/08/02 04:14:46;;;;;;;2.45;1.83;;;;;;;10.01;99.36;101711.16;4973828;28;20244;-45
2022/08/02 04:17:14;;;;;;;4.88;1.77;;;;;;;10.13;99.05;101715.38;4974015;28;20661;-45
2022/08/02 04:19:44;;;;;;;2.47;1.70;;;;;;;10.19;98.51;101720.59;4974213;28;20704;-49
2022/08/02 04:22:24;;;;;;;3.90;1.67;;;;;;;10.20;98.27;101722.34;4973717;28;20202;-49
2022/08/02 04:24:53;;;;;;;2.60;1.88;;;;;;;10.22;98.04;101712.50;4973451;28;20586;-50
2022/08/02 04:27:20;;;;;;;5.78;2.10;;;;;;;10.16;97.99;101709.94;4973446;28;20329;-44
2022/08/02 04:29:47;;;;;;;5.32;1.77;;;;;;;10.18;98.04;101716.16;4974286;28;20551;-48
2022/08/02 04:32:14;;;;;;;4.18;2.05;;;;;;;10.18;98.42;101716.16;4973698;28;20751;-47
2022/08/02 04:34:39;;;;;;;2.83;1.80;;;;;;;10.19;98.93;101714.34;4973631;28;20714;-47
2022/08/02 04:37:05;;;;;;;5.45;2.00;;;;;;;10.22;99.35;101720.53;4973792;28;20201;-46
2022/08/02 04:39:31;;;;;;;3.20;2.25;;;;;;;10.09;99.89;101725.25;4973653;28;20170;-44
2022/08/02 04:41:56;;;;;;;6.10;2.38;;;;;;;10.06;100.00;101719.97;4973618;28;20256;-46
2022/08/02 04:44:22;;;;;;;5.43;2.70;;;;;;;10.11;100.00;101725.25;4956013;28;20197;-45
2022/08/02 04:46:49;;;;;;;5.35;2.58;;;;;;;10.00;100.00;101712.09;4973948;28;20224;-47
2022/08/02 04:49:15;;;;;;;11.32;3.35;;;;;;;9.94;100.00;101722.91;4973582;28;20170;-49
2022/08/02 04:51:42;;;;;;;9.48;3.08;;;;;;;10.01;100.00;101718.31;4973465;28;20216;-44
2022/08/02 04:54:09;;;;;;;6.30;2.78;;;;;;;10.20;100.00;101711.63;4973217;28;20197;-44
2022/08/02 04:56:35;;;;;;;11.40;3.25;;;;;;;10.42;100.00;101711.19;4973267;28;20874;-44
2022/08/02 04:59:01;;;;;;;9.25;3.40;;;;;;;10.64;100.00;101706.19;4973488;28;20173;-45
2022/08/02 05:01:26;;;;;;;8.60;3.40;;;;;;;10.89;100.00;101720.75;4973305;28;20700;-46
2022/08/02 05:03:52;;;;;;;6.28;3.50;;;;;;;11.09;100.00;101725.59;4971988;28;20585;-44
2022/08/02 05:06:18;;;;;;;9.77;3.92;;;;;;;11.30;100.00;101721.47;4973327;28;20693;-50
2022/08/02 05:08:45;;;;;;;10.25;3.83;;;;;;;11.44;100.00;101737.19;4973069;28;20276;-46
2022/08/02 05:11:11;;;;;;;9.60;3.40;;;;;;;11.59;100.00;101722.47;4973032;28;20233;-45
2022/08/02 05:13:36;;;;;;;5.78;2.85;;;;;;;11.88;100.00;101727.03;4972810;28;20234;-46
2022/08/02 05:16:03;;;;;;;12.02;3.40;;;;;;;12.04;100.00;101729.25;4973139;28;20555;-49
2022/08/02 05:18:29;;;;;;;12.30;3.22;;;;;;;12.12;100.00;101728.09;4972798;28;20549;-46
2022/08/02 05:20:55;;;;;;;7.53;2.75;;;;;;;12.29;99.39;101732.97;4972864;28;20194;-45
2022/08/02 05:23:20;;;;;;;13.35;2.80;;;;;;;12.50;98.61;101736.78;4972995;28;20174;-48
2022/08/02 05:25:46;;;;;;;12.15;2.53;;;;;;;12.60;97.30;101736.50;4971352;28;20622;-51
2022/08/02 05:28:11;;;;;;;9.52;2.50;;;;;;;12.70;96.24;101740.63;4972825;28;20204;-45
2022/08/02 05:30:37;;;;;;;9.05;2.38;;;;;;;12.84;95.19;101743.78;4972691;28;20668;-48
2022/08/02 05:33:03;;;;;;;10.40;2.30;;;;;;;12.88;93.72;101740.06;4972817;28;20193;-50
2022/08/02 05:35:29;;;;;;;7.70;3.35;;;;;;;13.04;93.08;101747.59;4977609;28;20335;-46
2022/08/02 05:37:54;;;;;;;8.30;2.28;;;;;;;13.28;92.64;101738.72;4991972;28;20260;-43
2022/08/02 05:40:20;;;;;;;5.97;2.08;;;;;;;13.29;91.63;101743.16;4992013;28;20166;-47
2022/08/02 05:42:45;;;;;;;5.22;2.38;;;;;;;13.57;91.10;101740.34;4991609;28;20207;-46
2022/08/02 05:45:11;;;;;;;9.18;2.40;;;;;;;13.57;89.90;101736.78;4991827;28;20561;-44
2022/08/02 05:47:37;;;;;;;5.55;2.25;;;;;;;13.60;88.54;101734.88;4991991;28;20177;-47
2022/08/02 05:50:05;;;;;;;8.18;2.40;;;;;;;13.72;88.36;101736.22;4991882;28;20790;-46
2022/08/02 05:53:00;;;;;;;7.90;1.50;;;;;;;13.94;87.83;101739.00;4986054;28;20884;-44
2022/08/02 05:55:29;;;;;;;13.40;2.08;;;;;;;13.94;87.03;101735.44;4991670;28;20225;-46
2022/08/02 05:58:19;;;;;;;8.75;2.25;;;;;;;13.92;86.99;101727.41;4991679;28;20714;-47
2022/08/02 06:00:48;;;;;;;9.23;1.83;;;;;;;14.32;85.35;101728.59;4991709;28;20625;-43
2022/08/02 06:03:15;;;;;;;10.15;2.22;;;;;;;14.65;83.99;101725.50;4991482;28;20535;-43
2022/08/02 06:05:56;;;;;;;10.02;1.77;;;;;;;14.96;81.50;101726.91;4991525;28;20644;-46
2022/08/02 06:08:28;;;;;;;7.38;1.83;;;;;;;15.25;81.19;101729.22;4991340;28;20629;-43
2022/08/02 06:10:57;;;;;;;6.97;1.80;;;;;;;15.20;79.70;101719.59;4989723;28;20666;-42
2022/08/02 06:13:24;;;;;;;3.10;1.35;;;;;;;15.60;78.28;101709.72;4991083;28;20166;-44
2022/08/02 06:15:50;;;;;;;11.52;1.55;;;;;;;15.61;76.81;101714.16;4991218;28;20170;-45
2022/08/02 06:18:16;;;;;;;10.98;1.83;;;;;;;15.88;76.27;101709.38;4990064;28;20252;-43
2022/08/02 06:20:45;;;;;;;13.35;1.70;;;;;;;15.96;76.40;101722.50;4991255;28;20162;-46
2022/08/02 06:23:12;;;;;;;7.43;1.58;;;;;;;15.60;75.47;101718.69;4990508;28;20316;-43
2022/08/02 06:25:40;;;;;;;5.03;1.10;;;;;;;16.14;75.21;101721.66;4991099;28;20176;-46
2022/08/02 06:28:05;;;;;;;7.97;1.50;;;;;;;16.12;74.01;101734.38;4990819;28;20657;-45
2022/08/02 06:30:32;;;;;;;9.70;1.67;;;;;;;16.27;73.73;101727.38;4991183;28;20174;-42
2022/08/02 06:32:58;;;;;;;7.70;1.73;;;;;;;16.10;74.86;101724.59;4990903;28;20193;-42
2022/08/02 06:35:32;;;;;;;12.27;1.75;;;;;;;15.93;74.63;101723.53;4990845;28;20308;-43
2022/08/02 06:38:00;;;;;;;6.50;1.58;;;;;;;16.16;74.37;101710.75;4991031;28;20168;-45
2022/08/02 06:40:34;;;;;;;8.00;1.60;;;;;;;16.22;73.01;101716.78;4990701;28;20521;-44
2022/08/02 06:43:19;;;;;;;9.18;1.70;;;;;;;15.89;72.24;101737.28;4990737;28;20181;-45
2022/08/02 06:45:44;;;;;;;4.63;1.33;;;;;;;16.43;73.28;101728.38;4990679;28;20271;-46
2022/08/02 06:48:10;;;;;;;8.98;1.63;;;;;;;16.27;72.63;101730.94;4990372;28;20220;-46
2022/08/02 06:50:40;;;;;;;11.85;1.90;;;;;;;16.14;72.36;101737.03;4990564;28;20178;-43
2022/08/02 06:53:07;;;;;;;6.47;1.67;;;;;;;16.40;72.64;101733.06;4990808;28;20587;-44
2022/08/02 06:55:33;;;;;;;6.70;1.23;;;;;;;16.46;72.86;101736.38;4991005;28;20173;-46
2022/08/02 06:57:59;;;;;;;5.60;1.45;;;;;;;16.89;71.74;101736.97;4991055;28;20187;-44
2022/08/02 07:00:25;;;;;;;7.78;1.73;;;;;;;17.17;70.74;101723.88;4990945;28;20256;-45
2022/08/02 07:02:51;;;;;;;7.00;1.60;;;;;;;17.68;69.37;101730.19;4990808;28;20259;-45
2022/08/02 07:05:17;;;;;;;5.28;1.40;;;;;;;17.08;69.67;101722.50;4990347;28;20166;-45
2022/08/02 07:07:44;;;;;;;7.97;1.75;;;;;;;17.37;69.10;101720.97;4990554;28;20166;-46
2022/08/02 07:10:09;;;;;;;8.43;1.80;;;;;;;17.84;69.06;101724.84;4990499;28;20539;-45
2022/08/02 07:12:35;;;;;;;5.90;1.42;;;;;;;17.92;68.73;101717.16;4989387;28;20193;-44
2022/08/02 07:15:03;;;;;;;9.48;1.80;;;;;;;17.59;66.22;101703.59;4990040;28;20193;-44
2022/08/02 07:17:29;;;;;;;9.10;1.95;;;;;;;17.53;67.54;101703.91;4990605;28;20177;-45
2022/08/02 07:19:56;;;;;;;8.88;1.75;;;;;;;18.06;65.97;101692.91;4990404;28;20192;-43
2022/08/02 07:22:23;;;;;;;8.60;1.77;;;;;;;17.73;67.77;101689.28;4990163;28;20621;-44
2022/08/02 07:24:49;;;;;;;7.18;1.50;;;;;;;17.67;67.40;101691.38;4990252;28;20649;-44
2022/08/02 07:27:15;;;;;;;8.32;1.95;;;;;;;18.15;66.33;101686.06;4990165;28;20208;-43
2022/08/02 07:29:41;;;;;;;8.57;2.28;;;;;;;17.79;68.06;101691.66;4986383;28;20257;-44
2022/08/02 07:32:06;;;;;;;11.55;1.90;;;;;;;17.91;67.84;101694.63;4971097;28;20206;-43
2022/08/02 07:34:32;;;;;;;6.53;2.08;;;;;;;17.97;67.81;101690.66;4970508;28;20284;-45
2022/08/02 07:36:58;;;;;;;9.05;1.83;;;;;;;18.55;66.25;101697.34;4971079;28;20257;-45
2022/08/02 07:39:24;;;;;;;7.45;1.77;;;;;;;18.58;66.34;101699.88;4970828;28;20674;-42
2022/08/02 07:41:52;;;;;;;10.13;1.90;;;;;;;18.66;66.02;101696.72;4970687;28;20761;-43
2022/08/02 07:44:18;;;;;;;9.98;2.13;;;;;;;18.64;66.00;101702.25;4970246;28;20183;-45
2022/08/02 07:46:45;;;;;;;5.93;1.60;;;;;;;18.82;65.90;101684.03;4970917;28;20250;-43
2022/08/02 07:49:12;;;;;;;8.65;1.65;;;;;;;18.52;65.34;101683.97;4970890;28;20167;-44
2022/08/02 07:51:38;;;;;;;4.82;1.60;;;;;;;18.92;64.77;101682.53;4970598;28;20217;-41
2022/08/02 07:54:04;;;;;;;5.28;1.35;;;;;;;19.04;64.03;101685.47;4970866;28;20194;-49
2022/08/02 07:56:29;;;;;;;6.10;1.50;;;;;;;19.10;63.28;101688.69;4970965;28;20177;-43
2022/08/02 07:58:55;;;;;;;5.45;1.55;;;;;;;18.47;63.85;101684.22;4971338;28;20694;-46
2022/08/02 08:01:21;;;;;;;5.40;1.40;;;;;;;19.23;65.82;101675.22;4974197;28;20257;-47
2022/08/02 08:03:46;;;;;;;7.47;1.48;;;;;;;19.00;64.31;101673.03;4974135;28;20232;-49
2022/08/02 08:06:12;;;;;;;8.80;1.80;;;;;;;19.03;63.45;101679.16;4974228;28;20180;-45
2022/08/02 08:08:37;;;;;;;15.95;2.28;;;;;;;19.03;63.90;101678.28;4974032;28;20170;-46
2022/08/02 08:11:03;;;;;;;10.52;2.08;;;;;;;19.22;63.40;101662.63;4974223;28;20205;-48
2022/08/02 08:13:28;;;;;;;4.65;1.20;;;;;;;19.20;63.74;101663.66;4973898;28;20170;-44
2022/08/02 08:15:54;;;;;;;7.22;1.70;;;;;;;19.22;63.51;101649.03;4974342;28;20177;-47
2022/08/02 08:18:20;;;;;;;4.97;1.38;;;;;;;19.23;62.38;101641.75;4972875;28;20166;-47
2022/08/02 08:20:46;;;;;;;7.03;1.75;;;;;;;19.84;62.61;101639.78;4973932;28;20502;-46
2022/08/02 08:23:11;;;;;;;7.57;1.70;;;;;;;19.47;61.45;101637.50;4973819;28;20188;-47
2022/08/02 08:25:37;;;;;;;6.93;1.65;;;;;;;19.90;61.11;101640.25;4973873;28;20256;-44
2022/08/02 08:28:02;;;;;;;8.30;1.40;;;;;;;19.81;61.06;101645.38;4973709;28;20194;-44
2022/08/02 08:30:28;;;;;;;3.13;1.10;;;;;;;19.87;60.35;101647.72;4973712;28;20254;-45
2022/08/02 08:32:53;;;;;;;5.85;1.73;;;;;;;20.17;59.62;101637.56;4973526;28;20252;-48
2022/08/02 08:35:19;;;;;;;8.30;2.30;;;;;;;19.96;61.47;101647.13;4972449;28;20714;-43
2022/08/02 08:37:45;;;;;;;8.23;1.50;;;;;;;19.47;62.21;101645.66;4973554;28;20166;-45
2022/08/02 08:40:11;;;;;;;9.88;1.88;;;;;;;19.26;62.41;101647.88;4973834;28;20170;-45
2022/08/02 08:42:38;;;;;;;6.00;1.52;;;;;;;20.06;61.03;101626.53;4971987;28;20265;-46
2022/08/02 08:45:05;;;;;;;6.25;1.88;;;;;;;19.87;60.45;101629.56;4973594;28;20515;-44
2022/08/02 08:47:38;;;;;;;6.35;1.50;;;;;;;20.12;58.90;101619.81;4973646;28;20208;-45
2022/08/02 08:50:10;;;;;;;9.65;1.52;;;;;;;20.41;58.46;101619.72;4973428;28;20201;-44
2022/08/02 08:52:47;;;;;;;5.97;1.40;;;;;;;21.19;55.21;101614.38;4973396;28;20208;-44
2022/08/02 08:55:14;;;;;;;5.43;1.30;;;;;;;21.16;53.86;101620.03;4973176;28;20190;-45
2022/08/02 08:57:44;;;;;;;9.63;1.80;;;;;;;20.69;54.44;101624.22;4973263;28;20162;-48
2022/08/02 09:00:15;;;;;;;6.40;1.40;;;;;;;20.58;54.53;101633.09;4972565;28;20193;-51
2022/08/02 09:02:41;;;;;;;4.85;1.38;;;;;;;20.97;54.71;101634.94;4974346;28;20213;-53
2022/08/02 09:05:12;;;;;;;6.40;1.50;;;;;;;21.05;53.93;101630.81;4972785;28;20564;-54
2022/08/02 09:07:40;;;;;;;5.03;1.30;;;;;;;20.96;54.50;101618.69;4973627;28;20248;-49
2022/08/02 09:10:38;;;;;;;4.43;1.35;;;;;;;21.60;54.50;101619.63;4972612;28;20222;-47
2022/08/02 09:13:14;;;;;;;8.68;1.77;;;;;;;21.44;51.14;101610.78;4972703;28;20174;-50
2022/08/02 09:15:41;;;;;;;5.13;1.25;;;;;;;21.32;52.98;101611.66;4972517;28;20256;-50
2022/08/02 09:18:07;;;;;;;6.65;1.38;;;;;;;21.16;52.91;101620.88;4972637;28;20185;-48
2022/08/02 09:20:34;;;;;;;4.30;1.30;;;;;;;21.23;52.25;101618.63;4972663;28;20166;-48
2022/08/02 09:23:10;;;;;;;7.10;1.40;;;;;;;21.16;52.56;101615.44;4972117;28;20206;-54
2022/08/02 09:25:36;;;;;;;5.57;1.25;;;;;;;21.34;51.55;101610.56;4971493;28;20222;-51
2022/08/02 09:28:03;;;;;;;5.78;1.60;;;;;;;21.14;52.39;101608.34;4972559;28;20264;-51
2022/08/02 09:30:30;;;;;;;6.10;1.40;;;;;;;21.48;53.11;101603.28;4972380;28;20712;-48
2022/08/02 09:32:55;;;;;;;6.85;1.70;;;;;;;21.62;51.45;101586.78;4972224;28;20358;-51
2022/08/02 09:35:35;;;;;;;6.70;1.30;;;;;;;21.58;49.00;101605.22;4971861;28;20304;-48
2022/08/02 09:38:12;;;;;;;4.38;1.27;;;;;;;21.26;50.56;101593.88;4972586;28;20176;-48
2022/08/02 09:40:40;;;;;;;4.57;1.17;;;;;;;21.41;50.18;101597.41;4972290;28;20177;-47
2022/08/02 09:43:07;;;;;;;6.50;1.58;;;;;;;22.01;50.17;101591.16;4970739;28;20181;-48
2022/08/02 09:45:34;;;;;;;5.55;1.23;;;;;;;21.99;48.98;101584.06;4972264;28;20182;-50
2022/08/02 09:48:08;;;;;;;4.63;1.35;;;;;;;21.98;49.34;101587.78;4971779;28;20688;-51
2022/08/02 09:50:39;;;;;;;3.88;1.10;;;;;;;21.69;49.00;101585.38;4972129;28;20201;-48
2022/08/02 09:53:05;;;;;;;5.47;1.27;;;;;;;21.54;49.33;101578.31;4971652;28;20189;-46
2022/08/02 09:55:30;;;;;;;6.28;1.23;;;;;;;21.77;49.58;101587.50;4972083;28;20194;-48
2022/08/02 09:57:56;;;;;;;5.28;1.02;;;;;;;22.14;48.13;101577.47;4971946;28;20169;-47
2022/08/02 10:00:22;;;;;;;4.72;1.13;;;;;;;22.52;47.85;101584.66;4971767;28;20264;-48
2022/08/02 10:03:07;;;;;;;3.40;1.02;;;;;;;22.31;49.67;101578.94;4971925;28;20594;-50
2022/08/02 10:05:51;;;;;;;5.43;1.20;;;;;;;22.53;49.71;101583.63;4971847;28;20189;-48
2022/08/02 10:08:17;;;;;;;5.53;1.20;;;;;;;22.39;48.76;101587.44;4971997;28;20561;-49
2022/08/02 10:10:43;;;;;;;5.50;1.40;;;;;;;22.57;49.38;101579.69;4971497;28;20224;-48
2022/08/02 10:13:09;;;;;;;4.95;1.45;;;;;;;22.02;48.56;101576.53;4971373;28;20184;-48
2022/08/02 10:15:38;;;;;;;5.63;1.38;;;;;;;22.13;49.38;101570.28;4971676;28;20190;-48
2022/08/02 10:18:07;;;;;;;4.93;0.98;;;;;;;21.72;48.43;101568.75;4971521;28;20173;-49
2022/08/02 10:20:43;;;;;;;2.90;1.00;;;;;;;22.15;48.47;101576.50;4971738;28;20553;-47
2022/08/02 10:23:12;;;;;;;3.70;1.20;;;;;;;22.95;47.79;101577.69;4970348;28;20172;-50
2022/08/02 10:25:38;;;;;;;5.20;1.60;;;;;;;22.66;48.39;101575.38;4971716;28;20659;-48
2022/08/02 10:28:08;;;;;;;5.93;1.33;;;;;;;22.85;47.22;101577.56;4971417;28;20618;-47
2022/08/02 10:30:40;;;;;;;3.20;0.98;;;;;;;22.88;47.29;101557.31;4971699;28;20205;-48
2022/08/02 10:33:07;;;;;;;4.60;1.50;;;;;;;23.02;46.25;101559.84;4971376;28;20186;-49
2022/08/02 10:35:37;;;;;;;3.53;1.15;;;;;;;23.29;45.87;101558.66;4971057;28;20217;-49
2022/08/02 10:38:08;;;;;;;5.22;1.38;;;;;;;22.95;45.63;101562.16;4971730;28;20208;-49
2022/08/02 10:40:54;;;;;;;3.88;1.10;;;;;;;22.93;46.06;101547.75;4971287;28;20174;-46
2022/08/02 10:43:35;;;;;;;3.03;1.20;;;;;;;22.89;45.60;101540.78;4969906;28;20173;-47
2022/08/02 10:46:37;;;;;;;4.18;1.30;;;;;;;23.38;46.06;101539.63;4971007;28;20580;-48
2022/08/02 10:49:06;;;;;;;5.15;1.08;;;;;;;23.37;44.52;101535.13;4970371;28;20208;-51
2022/08/02 10:51:50;;;;;;;2.85;1.15;;;;;;;23.01;44.97;101537.09;4971392;28;20292;-47
2022/08/02 10:54:26;;;;;;;6.03;1.40;;;;;;;23.52;44.40;101510.28;4970939;28;20198;-48
2022/08/02 10:56:55;;;;;;;6.50;1.23;;;;;;;23.73;44.15;101510.38;4971389;28;20174;-52
2022/08/02 10:59:26;;;;;;;3.72;1.10;;;;;;;22.99;44.06;101517.19;4970991;28;20177;-49
2022/08/02 11:01:59;;;;;;;5.43;1.65;;;;;;;22.96;45.79;101512.00;4971361;28;20201;-53
2022/08/02 11:04:35;;;;;;;3.28;1.08;;;;;;;22.93;46.06;101512.22;4970593;28;20267;-48
2022/08/02 11:07:18;;;;;;;4.13;1.33;;;;;;;23.11;46.33;101503.56;4971253;28;20728;-49
2022/08/02 11:09:45;;;;;;;3.63;1.17;;;;;;;23.18;45.56;101507.56;4970918;28;20174;-46
2022/08/02 11:12:19;;;;;;;4.07;1.02;;;;;;;23.38;43.03;101515.00;4971128;28;20198;-48
2022/08/02 11:14:57;;;;;;;7.32;1.25;;;;;;;23.25;44.37;101508.81;4970664;28;20204;-50
2022/08/02 11:17:23;;;;;;;3.15;1.15;;;;;;;23.32;46.00;101509.16;4970673;28;20186;-49
2022/08/02 11:20:07;;;;;;;4.15;1.10;;;;;;;23.48;43.95;101506.91;4971062;28;20166;-47
2022/08/02 11:22:33;;;;;;;3.22;1.00;;;;;;;24.05;42.95;101502.19;4970780;28;20197;-50
2022/08/02 11:25:22;;;;;;;2.22;0.85;;;;;;;23.86;41.76;101497.44;4970713;28;20201;-48
2022/08/02 11:27:55;;;;;;;2.80;1.00;;;;;;;23.95;40.20;101496.66;4970687;28;20198;-49
2022/08/02 11:30:21;;;;;;;3.63;0.90;;;;;;;23.91;41.08;101499.78;4980435;28;20779;-48
2022/08/02 11:32:47;;;;;;;5.50;0.90;;;;;;;23.99;40.52;101491.81;4989256;28;20583;-53
2022/08/02 11:35:14;;;;;;;4.28;1.00;;;;;;;23.69;39.96;101489.72;4983224;28;20532;-49
2022/08/02 11:37:42;;;;;;;3.50;0.80;;;;;;;24.00;41.54;101483.44;4974673;28;20170;-48